sensor_id;sensor_type;location;lat;lon;timestamp;temperature;humidity
38359;DHT22;42072;48.044;14.416;2024-01-30T00:01:56;-3.30;1.00
38359;DHT22;42072;48.044;14.416;2024-01-30T00:04:24;-3.30;1.00
38359;DHT22;42072;48.044;14.416;2024-01-30T00:06:51;-3.30;1.00
38359;DHT22;42072;48.044;14.416;2024-01-30T00:09:19;-3.40;1.00
38359;DHT22;42072;48.044;14.416;2024-01-30T00:11:47;-3.40;1.00
38359;DHT22;42072;48.044;14.416;2024-01-30T00:14:14;-3.40;1.00
38359;DHT22;42072;48.044;14.416;2024-01-30T00:16:41;-3.40;1.00
38359;DHT22;42072;48.044;14.416;2024-01-30T00:19:08;-3.40;1.00
38359;DHT22;42072;48.044;14.416;2024-01-30T00:21:35;-3.40;1.00
38359;DHT22;42072;48.044;14.416;2024-01-30T00:24:02;-3.40;1.00
38359;DHT22;42072;48.044;14.416;2024-01-30T00:26:30;-3.50;1.00
38359;DHT22;42072;48.044;14.416;2024-01-30T00:28:57;-3.50;1.00
38359;DHT22;42072;48.044;14.416;2024-01-30T00:31:24;-3.50;1.00
38359;DHT22;42072;48.044;14.416;2024-01-30T00:33:51;-3.50;1.00
38359;DHT22;42072;48.044;14.416;2024-01-30T00:36:19;-3.60;1.00
38359;DHT22;42072;48.044;14.416;2024-01-30T00:38:46;-3.60;1.00
38359;DHT22;42072;48.044;14.416;2024-01-30T00:41:13;-3.60;1.00
38359;DHT22;42072;48.044;14.416;2024-01-30T00:43:40;-3.60;1.00
38359;DHT22;42072;48.044;14.416;2024-01-30T00:46:08;-3.60;1.00
38359;DHT22;42072;48.044;14.416;2024-01-30T00:48:35;-3.60;1.00
38359;DHT22;42072;48.044;14.416;2024-01-30T00:51:03;-3.60;1.00
38359;DHT22;42072;48.044;14.416;2024-01-30T00:53:30;-3.60;1.00
38359;DHT22;42072;48.044;14.416;2024-01-30T00:55:57;-3.70;1.00
38359;DHT22;42072;48.044;14.416;2024-01-30T00:58:24;-3.70;1.00
38359;DHT22;42072;48.044;14.416;2024-01-30T01:00:52;-3.70;1.00
38359;DHT22;42072;48.044;14.416;2024-01-30T01:03:19;-3.70;1.00
38359;DHT22;42072;48.044;14.416;2024-01-30T01:05:46;-3.70;1.00
38359;DHT22;42072;48.044;14.416;2024-01-30T01:08:13;-3.70;1.00
38359;DHT22;42072;48.044;14.416;2024-01-30T01:10:41;-3.70;1.00
38359;DHT22;42072;48.044;14.416;2024-01-30T01:13:09;-3.70;1.00
38359;DHT22;42072;48.044;14.416;2024-01-30T01:15:36;-3.60;1.00
38359;DHT22;42072;48.044;14.416;2024-01-30T01:18:04;-3.60;1.00
38359;DHT22;42072;48.044;14.416;2024-01-30T01:20:31;-3.70;1.00
38359;DHT22;42072;48.044;14.416;2024-01-30T01:22:59;-3.70;1.00
38359;DHT22;42072;48.044;14.416;2024-01-30T01:25:26;-3.80;1.00
38359;DHT22;42072;48.044;14.416;2024-01-30T01:27:53;-3.80;1.00
38359;DHT22;42072;48.044;14.416;2024-01-30T01:30:20;-3.80;1.00
38359;DHT22;42072;48.044;14.416;2024-01-30T01:32:50;-3.80;1.00
38359;DHT22;42072;48.044;14.416;2024-01-30T01:35:29;-3.80;1.00
38359;DHT22;42072;48.044;14.416;2024-01-30T01:37:56;-3.80;1.00
38359;DHT22;42072;48.044;14.416;2024-01-30T01:40:26;-3.80;1.00
38359;DHT22;42072;48.044;14.416;2024-01-30T01:42:54;-3.80;1.00
38359;DHT22;42072;48.044;14.416;2024-01-30T01:45:22;-3.80;1.00
38359;DHT22;42072;48.044;14.416;2024-01-30T01:47:53;-3.90;1.00
38359;DHT22;42072;48.044;14.416;2024-01-30T01:50:20;-3.90;1.00
38359;DHT22;42072;48.044;14.416;2024-01-30T01:52:49;-3.90;1.00
38359;DHT22;42072;48.044;14.416;2024-01-30T01:55:18;-3.90;1.00
38359;DHT22;42072;48.044;14.416;2024-01-30T01:57:48;-4.00;1.00
38359;DHT22;42072;48.044;14.416;2024-01-30T02:00:15;-4.00;1.00
38359;DHT22;42072;48.044;14.416;2024-01-30T02:02:43;-4.00;1.00
38359;DHT22;42072;48.044;14.416;2024-01-30T02:05:12;-4.00;1.00
38359;DHT22;42072;48.044;14.416;2024-01-30T02:07:39;-4.00;1.00
38359;DHT22;42072;48.044;14.416;2024-01-30T02:10:07;-4.00;1.00
38359;DHT22;42072;48.044;14.416;2024-01-30T02:12:37;-4.00;1.00
38359;DHT22;42072;48.044;14.416;2024-01-30T02:15:04;-4.00;1.00
38359;DHT22;42072;48.044;14.416;2024-01-30T02:17:32;-4.00;1.00
38359;DHT22;42072;48.044;14.416;2024-01-30T02:19:59;-4.00;1.00
38359;DHT22;42072;48.044;14.416;2024-01-30T02:22:27;-4.00;1.00
38359;DHT22;42072;48.044;14.416;2024-01-30T02:24:54;-4.00;1.00
38359;DHT22;42072;48.044;14.416;2024-01-30T02:27:21;-4.00;1.00
38359;DHT22;42072;48.044;14.416;2024-01-30T02:29:48;-4.00;1.00
38359;DHT22;42072;48.044;14.416;2024-01-30T02:32:16;-4.00;1.00
38359;DHT22;42072;48.044;14.416;2024-01-30T02:34:43;-4.00;1.00
38359;DHT22;42072;48.044;14.416;2024-01-30T02:37:11;-4.00;1.00
38359;DHT22;42072;48.044;14.416;2024-01-30T02:39:38;-4.00;1.00
38359;DHT22;42072;48.044;14.416;2024-01-30T02:42:05;-4.00;1.00
38359;DHT22;42072;48.044;14.416;2024-01-30T02:44:32;-4.10;1.00
38359;DHT22;42072;48.044;14.416;2024-01-30T02:46:59;-4.00;1.00
38359;DHT22;42072;48.044;14.416;2024-01-30T02:49:27;-4.10;1.00
38359;DHT22;42072;48.044;14.416;2024-01-30T02:51:54;-4.10;1.00
38359;DHT22;42072;48.044;14.416;2024-01-30T02:54:23;-4.10;1.00
38359;DHT22;42072;48.044;14.416;2024-01-30T02:56:51;-4.10;1.00
38359;DHT22;42072;48.044;14.416;2024-01-30T02:59:18;-4.00;1.00
38359;DHT22;42072;48.044;14.416;2024-01-30T03:01:45;-4.00;1.00
38359;DHT22;42072;48.044;14.416;2024-01-30T03:04:13;-4.00;1.00
38359;DHT22;42072;48.044;14.416;2024-01-30T03:06:44;-4.00;1.00
38359;DHT22;42072;48.044;14.416;2024-01-30T03:09:12;-4.00;1.00
38359;DHT22;42072;48.044;14.416;2024-01-30T03:11:40;-4.00;1.00
38359;DHT22;42072;48.044;14.416;2024-01-30T03:14:07;-4.10;1.00
38359;DHT22;42072;48.044;14.416;2024-01-30T03:16:37;-4.00;1.00
38359;DHT22;42072;48.044;14.416;2024-01-30T03:19:07;-4.00;1.00
38359;DHT22;42072;48.044;14.416;2024-01-30T03:21:36;-4.00;1.00
38359;DHT22;42072;48.044;14.416;2024-01-30T03:24:03;-4.00;1.00
38359;DHT22;42072;48.044;14.416;2024-01-30T03:26:30;-4.00;1.00
38359;DHT22;42072;48.044;14.416;2024-01-30T03:28:58;-4.00;1.00
38359;DHT22;42072;48.044;14.416;2024-01-30T03:31:25;-4.10;1.00
38359;DHT22;42072;48.044;14.416;2024-01-30T03:33:52;-4.00;1.00
38359;DHT22;42072;48.044;14.416;2024-01-30T03:36:20;-4.00;1.00
38359;DHT22;42072;48.044;14.416;2024-01-30T03:38:47;-4.10;1.00
38359;DHT22;42072;48.044;14.416;2024-01-30T03:41:14;-4.10;1.00
38359;DHT22;42072;48.044;14.416;2024-01-30T03:43:42;-4.10;1.00
38359;DHT22;42072;48.044;14.416;2024-01-30T03:46:09;-4.00;1.00
38359;DHT22;42072;48.044;14.416;2024-01-30T03:48:36;-4.00;1.00
38359;DHT22;42072;48.044;14.416;2024-01-30T03:51:04;-4.10;1.00
38359;DHT22;42072;48.044;14.416;2024-01-30T03:53:31;-4.10;1.00
38359;DHT22;42072;48.044;14.416;2024-01-30T03:55:58;-4.10;1.00
38359;DHT22;42072;48.044;14.416;2024-01-30T03:58:26;-4.10;1.00
38359;DHT22;42072;48.044;14.416;2024-01-30T04:00:53;-4.10;1.00
38359;DHT22;42072;48.044;14.416;2024-01-30T04:03:20;-4.00;1.00
38359;DHT22;42072;48.044;14.416;2024-01-30T04:05:47;-4.00;1.00
38359;DHT22;42072;48.044;14.416;2024-01-30T04:08:15;-4.00;1.00
38359;DHT22;42072;48.044;14.416;2024-01-30T04:10:42;-4.00;1.00
38359;DHT22;42072;48.044;14.416;2024-01-30T04:13:10;-4.00;1.00
38359;DHT22;42072;48.044;14.416;2024-01-30T04:15:38;-3.90;1.00
38359;DHT22;42072;48.044;14.416;2024-01-30T04:18:06;-3.90;1.00
38359;DHT22;42072;48.044;14.416;2024-01-30T04:20:33;-3.90;1.00
38359;DHT22;42072;48.044;14.416;2024-01-30T04:23:01;-4.00;1.00
38359;DHT22;42072;48.044;14.416;2024-01-30T04:25:28;-4.00;1.00
38359;DHT22;42072;48.044;14.416;2024-01-30T04:27:55;-4.00;1.00
38359;DHT22;42072;48.044;14.416;2024-01-30T04:30:22;-4.00;1.00
38359;DHT22;42072;48.044;14.416;2024-01-30T04:32:49;-4.00;1.00
38359;DHT22;42072;48.044;14.416;2024-01-30T04:35:17;-3.90;1.00
38359;DHT22;42072;48.044;14.416;2024-01-30T04:37:44;-4.00;1.00
38359;DHT22;42072;48.044;14.416;2024-01-30T04:40:11;-4.00;1.00
38359;DHT22;42072;48.044;14.416;2024-01-30T04:42:39;-4.00;1.00
38359;DHT22;42072;48.044;14.416;2024-01-30T04:45:06;-4.00;1.00
38359;DHT22;42072;48.044;14.416;2024-01-30T04:47:34;-4.10;1.00
38359;DHT22;42072;48.044;14.416;2024-01-30T04:50:02;-4.00;1.00
38359;DHT22;42072;48.044;14.416;2024-01-30T04:52:31;-4.10;1.00
38359;DHT22;42072;48.044;14.416;2024-01-30T04:54:59;-4.10;1.00
38359;DHT22;42072;48.044;14.416;2024-01-30T04:57:26;-4.10;1.00
38359;DHT22;42072;48.044;14.416;2024-01-30T04:59:53;-4.10;1.00
38359;DHT22;42072;48.044;14.416;2024-01-30T05:02:21;-4.10;1.00
38359;DHT22;42072;48.044;14.416;2024-01-30T05:04:48;-4.20;1.00
38359;DHT22;42072;48.044;14.416;2024-01-30T05:07:15;-4.20;1.00
38359;DHT22;42072;48.044;14.416;2024-01-30T05:09:42;-4.20;1.00
38359;DHT22;42072;48.044;14.416;2024-01-30T05:12:10;-4.10;1.00
38359;DHT22;42072;48.044;14.416;2024-01-30T05:14:37;-4.10;1.00
38359;DHT22;42072;48.044;14.416;2024-01-30T05:17:04;-4.00;1.00
38359;DHT22;42072;48.044;14.416;2024-01-30T05:19:31;-3.90;1.00
38359;DHT22;42072;48.044;14.416;2024-01-30T05:21:58;-3.90;1.00
38359;DHT22;42072;48.044;14.416;2024-01-30T05:24:25;-3.90;1.00
38359;DHT22;42072;48.044;14.416;2024-01-30T05:26:54;-3.90;1.00
38359;DHT22;42072;48.044;14.416;2024-01-30T05:29:21;-3.90;1.00
38359;DHT22;42072;48.044;14.416;2024-01-30T05:31:48;-4.00;1.00
38359;DHT22;42072;48.044;14.416;2024-01-30T05:34:16;-4.10;1.00
38359;DHT22;42072;48.044;14.416;2024-01-30T05:36:43;-4.10;1.00
38359;DHT22;42072;48.044;14.416;2024-01-30T05:39:10;-4.20;1.00
38359;DHT22;42072;48.044;14.416;2024-01-30T05:41:37;-4.30;1.00
38359;DHT22;42072;48.044;14.416;2024-01-30T05:44:04;-4.30;1.00
38359;DHT22;42072;48.044;14.416;2024-01-30T05:46:33;-4.30;1.00
38359;DHT22;42072;48.044;14.416;2024-01-30T05:49:00;-4.30;1.00
38359;DHT22;42072;48.044;14.416;2024-01-30T05:51:28;-4.30;1.00
38359;DHT22;42072;48.044;14.416;2024-01-30T05:53:55;-4.30;1.00
38359;DHT22;42072;48.044;14.416;2024-01-30T05:56:22;-4.30;1.00
38359;DHT22;42072;48.044;14.416;2024-01-30T05:58:50;-4.40;1.00
38359;DHT22;42072;48.044;14.416;2024-01-30T06:01:17;-4.40;1.00
38359;DHT22;42072;48.044;14.416;2024-01-30T06:03:45;-4.40;1.00
38359;DHT22;42072;48.044;14.416;2024-01-30T06:06:12;-4.40;1.00
38359;DHT22;42072;48.044;14.416;2024-01-30T06:08:39;-4.30;1.00
38359;DHT22;42072;48.044;14.416;2024-01-30T06:11:12;-4.30;1.00
38359;DHT22;42072;48.044;14.416;2024-01-30T06:13:39;-4.30;1.00
38359;DHT22;42072;48.044;14.416;2024-01-30T06:16:09;-4.30;1.00
38359;DHT22;42072;48.044;14.416;2024-01-30T06:18:38;-4.30;1.00
38359;DHT22;42072;48.044;14.416;2024-01-30T06:21:05;-4.30;1.00
38359;DHT22;42072;48.044;14.416;2024-01-30T06:23:35;-4.30;1.00
38359;DHT22;42072;48.044;14.416;2024-01-30T06:26:02;-4.20;1.00
38359;DHT22;42072;48.044;14.416;2024-01-30T06:28:29;-4.20;1.00
38359;DHT22;42072;48.044;14.416;2024-01-30T06:30:56;-4.30;1.00
38359;DHT22;42072;48.044;14.416;2024-01-30T06:33:24;-4.30;1.00
38359;DHT22;42072;48.044;14.416;2024-01-30T06:35:52;-4.20;1.00
38359;DHT22;42072;48.044;14.416;2024-01-30T06:38:19;-4.30;1.00
38359;DHT22;42072;48.044;14.416;2024-01-30T06:40:46;-4.30;1.00
38359;DHT22;42072;48.044;14.416;2024-01-30T06:43:13;-4.20;1.00
38359;DHT22;42072;48.044;14.416;2024-01-30T06:45:40;-4.20;1.00
38359;DHT22;42072;48.044;14.416;2024-01-30T06:48:09;-4.20;1.00
38359;DHT22;42072;48.044;14.416;2024-01-30T06:50:37;-4.10;1.00
38359;DHT22;42072;48.044;14.416;2024-01-30T06:53:04;-4.10;1.00
38359;DHT22;42072;48.044;14.416;2024-01-30T06:55:31;-4.10;1.00
38359;DHT22;42072;48.044;14.416;2024-01-30T06:57:59;-4.10;1.00
38359;DHT22;42072;48.044;14.416;2024-01-30T07:00:26;-4.10;1.00
38359;DHT22;42072;48.044;14.416;2024-01-30T07:02:53;-4.10;1.00
38359;DHT22;42072;48.044;14.416;2024-01-30T07:05:21;-4.00;1.00
38359;DHT22;42072;48.044;14.416;2024-01-30T07:07:48;-4.00;1.00
38359;DHT22;42072;48.044;14.416;2024-01-30T07:10:16;-3.90;1.00
38359;DHT22;42072;48.044;14.416;2024-01-30T07:12:43;-3.80;1.00
38359;DHT22;42072;48.044;14.416;2024-01-30T07:15:11;-3.70;1.00
38359;DHT22;42072;48.044;14.416;2024-01-30T07:17:39;-3.70;1.00
38359;DHT22;42072;48.044;14.416;2024-01-30T07:20:06;-3.60;1.00
38359;DHT22;42072;48.044;14.416;2024-01-30T07:22:34;-3.60;1.00
38359;DHT22;42072;48.044;14.416;2024-01-30T07:25:01;-3.50;1.00
38359;DHT22;42072;48.044;14.416;2024-01-30T07:27:29;-3.40;1.00
38359;DHT22;42072;48.044;14.416;2024-01-30T07:29:56;-3.30;1.00
38359;DHT22;42072;48.044;14.416;2024-01-30T07:32:23;-3.20;1.00
38359;DHT22;42072;48.044;14.416;2024-01-30T07:34:51;-3.00;1.00
38359;DHT22;42072;48.044;14.416;2024-01-30T07:37:33;-2.80;1.00
38359;DHT22;42072;48.044;14.416;2024-01-30T07:40:01;-2.80;1.00
38359;DHT22;42072;48.044;14.416;2024-01-30T07:42:30;-2.70;1.00
38359;DHT22;42072;48.044;14.416;2024-01-30T07:44:57;-2.60;1.00
38359;DHT22;42072;48.044;14.416;2024-01-30T07:47:24;-2.50;1.00
38359;DHT22;42072;48.044;14.416;2024-01-30T07:49:52;-2.40;1.00
38359;DHT22;42072;48.044;14.416;2024-01-30T07:52:21;-2.30;1.00
38359;DHT22;42072;48.044;14.416;2024-01-30T07:57:38;-1.90;1.00
38359;DHT22;42072;48.044;14.416;2024-01-30T08:00:07;-1.70;1.00
38359;DHT22;42072;48.044;14.416;2024-01-30T08:02:34;-1.60;1.00
38359;DHT22;42072;48.044;14.416;2024-01-30T08:05:01;-1.50;1.00
38359;DHT22;42072;48.044;14.416;2024-01-30T08:07:28;-1.30;1.00
38359;DHT22;42072;48.044;14.416;2024-01-30T08:09:57;-1.30;99.90
38359;DHT22;42072;48.044;14.416;2024-01-30T08:12:24;-1.40;99.90
38359;DHT22;42072;48.044;14.416;2024-01-30T08:14:51;-1.30;99.90
38359;DHT22;42072;48.044;14.416;2024-01-30T08:17:18;-1.30;99.90
38359;DHT22;42072;48.044;14.416;2024-01-30T08:19:46;-1.20;99.90
38359;DHT22;42072;48.044;14.416;2024-01-30T08:22:13;-1.30;99.90
38359;DHT22;42072;48.044;14.416;2024-01-30T08:24:40;-1.30;99.90
38359;DHT22;42072;48.044;14.416;2024-01-30T08:27:08;-1.20;99.90
38359;DHT22;42072;48.044;14.416;2024-01-30T08:29:36;-1.10;99.90
38359;DHT22;42072;48.044;14.416;2024-01-30T08:32:05;-1.10;99.90
38359;DHT22;42072;48.044;14.416;2024-01-30T08:34:33;-0.90;99.90
38359;DHT22;42072;48.044;14.416;2024-01-30T08:37:00;-0.70;99.90
38359;DHT22;42072;48.044;14.416;2024-01-30T08:39:27;-0.70;99.90
38359;DHT22;42072;48.044;14.416;2024-01-30T08:41:55;-0.60;99.90
38359;DHT22;42072;48.044;14.416;2024-01-30T08:44:22;-0.50;99.90
38359;DHT22;42072;48.044;14.416;2024-01-30T08:46:49;-0.40;99.90
38359;DHT22;42072;48.044;14.416;2024-01-30T08:49:17;-0.40;99.90
38359;DHT22;42072;48.044;14.416;2024-01-30T08:51:44;-0.30;99.90
38359;DHT22;42072;48.044;14.416;2024-01-30T08:54:12;-0.20;99.90
38359;DHT22;42072;48.044;14.416;2024-01-30T08:56:40;-0.20;99.90
38359;DHT22;42072;48.044;14.416;2024-01-30T08:59:07;0.00;99.90
38359;DHT22;42072;48.044;14.416;2024-01-30T09:01:37;-0.10;99.90
38359;DHT22;42072;48.044;14.416;2024-01-30T09:04:08;0.00;99.90
38359;DHT22;42072;48.044;14.416;2024-01-30T09:06:35;0.20;99.90
38359;DHT22;42072;48.044;14.416;2024-01-30T09:09:02;0.30;95.80
38359;DHT22;42072;48.044;14.416;2024-01-30T09:11:29;0.20;57.20
38359;DHT22;42072;48.044;14.416;2024-01-30T09:13:57;0.30;41.20
38359;DHT22;42072;48.044;14.416;2024-01-30T09:16:24;0.20;19.10
38359;DHT22;42072;48.044;14.416;2024-01-30T09:18:51;0.30;27.50
38359;DHT22;42072;48.044;14.416;2024-01-30T09:21:18;0.50;34.80
38359;DHT22;42072;48.044;14.416;2024-01-30T09:23:45;0.40;1.00
38359;DHT22;42072;48.044;14.416;2024-01-30T09:26:12;0.40;1.00
38359;DHT22;42072;48.044;14.416;2024-01-30T09:28:39;0.40;1.00
38359;DHT22;42072;48.044;14.416;2024-01-30T09:31:09;0.50;1.00
38359;DHT22;42072;48.044;14.416;2024-01-30T09:33:37;0.50;1.00
38359;DHT22;42072;48.044;14.416;2024-01-30T09:36:06;0.40;1.00
38359;DHT22;42072;48.044;14.416;2024-01-30T09:38:33;0.50;1.00
38359;DHT22;42072;48.044;14.416;2024-01-30T09:41:01;0.50;1.00
38359;DHT22;42072;48.044;14.416;2024-01-30T09:43:31;0.50;1.00
38359;DHT22;42072;48.044;14.416;2024-01-30T09:46:01;0.60;1.00
38359;DHT22;42072;48.044;14.416;2024-01-30T09:48:30;0.60;1.00
38359;DHT22;42072;48.044;14.416;2024-01-30T09:50:57;0.60;1.00
38359;DHT22;42072;48.044;14.416;2024-01-30T09:53:25;0.50;1.00
38359;DHT22;42072;48.044;14.416;2024-01-30T09:55:53;0.60;1.00
38359;DHT22;42072;48.044;14.416;2024-01-30T09:58:20;0.70;1.00
38359;DHT22;42072;48.044;14.416;2024-01-30T10:00:48;0.50;1.00
38359;DHT22;42072;48.044;14.416;2024-01-30T10:06:00;0.80;1.00
38359;DHT22;42072;48.044;14.416;2024-01-30T10:08:28;1.00;1.00
38359;DHT22;42072;48.044;14.416;2024-01-30T10:10:56;1.10;1.00
38359;DHT22;42072;48.044;14.416;2024-01-30T10:13:25;1.20;99.90
38359;DHT22;42072;48.044;14.416;2024-01-30T10:15:53;1.20;99.90
38359;DHT22;42072;48.044;14.416;2024-01-30T10:18:25;1.20;99.90
38359;DHT22;42072;48.044;14.416;2024-01-30T10:20:52;1.30;99.90
38359;DHT22;42072;48.044;14.416;2024-01-30T10:23:19;1.50;99.90
38359;DHT22;42072;48.044;14.416;2024-01-30T10:25:47;1.60;99.90
38359;DHT22;42072;48.044;14.416;2024-01-30T10:28:15;1.60;99.90
38359;DHT22;42072;48.044;14.416;2024-01-30T10:30:42;1.80;99.90
38359;DHT22;42072;48.044;14.416;2024-01-30T10:33:09;1.90;99.90
38359;DHT22;42072;48.044;14.416;2024-01-30T10:35:36;1.80;99.90
38359;DHT22;42072;48.044;14.416;2024-01-30T10:38:04;1.80;99.90
38359;DHT22;42072;48.044;14.416;2024-01-30T10:40:33;1.80;99.90
38359;DHT22;42072;48.044;14.416;2024-01-30T10:43:01;1.60;99.90
38359;DHT22;42072;48.044;14.416;2024-01-30T10:45:31;1.70;99.90
38359;DHT22;42072;48.044;14.416;2024-01-30T10:48:16;1.70;99.90
38359;DHT22;42072;48.044;14.416;2024-01-30T10:50:49;1.70;99.90
38359;DHT22;42072;48.044;14.416;2024-01-30T10:53:34;1.40;99.90
38359;DHT22;42072;48.044;14.416;2024-01-30T10:56:03;1.60;99.90
38359;DHT22;42072;48.044;14.416;2024-01-30T10:58:30;1.70;99.90
38359;DHT22;42072;48.044;14.416;2024-01-30T11:00:59;1.80;99.90
38359;DHT22;42072;48.044;14.416;2024-01-30T11:03:29;1.70;99.90
38359;DHT22;42072;48.044;14.416;2024-01-30T11:06:00;1.90;99.90
38359;DHT22;42072;48.044;14.416;2024-01-30T11:08:31;2.20;99.90
38359;DHT22;42072;48.044;14.416;2024-01-30T11:10:59;2.20;80.40
38359;DHT22;42072;48.044;14.416;2024-01-30T11:13:29;2.10;74.70
38359;DHT22;42072;48.044;14.416;2024-01-30T11:16:03;1.80;99.90
38359;DHT22;42072;48.044;14.416;2024-01-30T11:18:31;1.70;99.90
38359;DHT22;42072;48.044;14.416;2024-01-30T11:20:59;1.60;99.90
38359;DHT22;42072;48.044;14.416;2024-01-30T11:23:28;1.60;99.90
38359;DHT22;42072;48.044;14.416;2024-01-30T11:25:56;1.50;99.90
38359;DHT22;42072;48.044;14.416;2024-01-30T11:28:24;1.60;99.90
38359;DHT22;42072;48.044;14.416;2024-01-30T11:30:51;1.50;99.90
38359;DHT22;42072;48.044;14.416;2024-01-30T11:33:28;1.60;99.90
38359;DHT22;42072;48.044;14.416;2024-01-30T11:36:00;1.60;99.90
38359;DHT22;42072;48.044;14.416;2024-01-30T11:38:34;1.80;99.90
38359;DHT22;42072;48.044;14.416;2024-01-30T11:41:01;1.80;99.90
38359;DHT22;42072;48.044;14.416;2024-01-30T11:43:29;2.00;99.90
38359;DHT22;42072;48.044;14.416;2024-01-30T11:45:56;2.20;99.90
38359;DHT22;42072;48.044;14.416;2024-01-30T11:48:23;2.20;99.90
38359;DHT22;42072;48.044;14.416;2024-01-30T11:50:50;2.10;99.90
38359;DHT22;42072;48.044;14.416;2024-01-30T11:53:18;2.00;99.90
38359;DHT22;42072;48.044;14.416;2024-01-30T11:55:51;2.10;99.90
38359;DHT22;42072;48.044;14.416;2024-01-30T11:58:18;2.00;99.90
38359;DHT22;42072;48.044;14.416;2024-01-30T12:00:53;2.00;99.90
38359;DHT22;42072;48.044;14.416;2024-01-30T12:03:20;2.00;99.90
38359;DHT22;42072;48.044;14.416;2024-01-30T12:05:54;2.20;99.90
38359;DHT22;42072;48.044;14.416;2024-01-30T12:08:22;2.20;87.00
38359;DHT22;42072;48.044;14.416;2024-01-30T12:11:06;2.00;90.60
38359;DHT22;42072;48.044;14.416;2024-01-30T12:13:33;2.10;97.40
38359;DHT22;42072;48.044;14.416;2024-01-30T12:16:00;2.20;90.00
38359;DHT22;42072;48.044;14.416;2024-01-30T12:18:28;2.20;65.10
38359;DHT22;42072;48.044;14.416;2024-01-30T12:20:59;2.20;53.80
38359;DHT22;42072;48.044;14.416;2024-01-30T12:23:27;2.00;63.30
38359;DHT22;42072;48.044;14.416;2024-01-30T12:25:55;2.00;93.90
38359;DHT22;42072;48.044;14.416;2024-01-30T12:28:23;2.10;87.60
38359;DHT22;42072;48.044;14.416;2024-01-30T12:31:07;2.00;78.30
38359;DHT22;42072;48.044;14.416;2024-01-30T12:33:36;1.80;99.20
38359;DHT22;42072;48.044;14.416;2024-01-30T12:36:03;1.90;99.90
38359;DHT22;42072;48.044;14.416;2024-01-30T12:38:31;1.90;99.90
38359;DHT22;42072;48.044;14.416;2024-01-30T12:41:15;2.00;99.90
38359;DHT22;42072;48.044;14.416;2024-01-30T12:43:43;2.00;99.90
38359;DHT22;42072;48.044;14.416;2024-01-30T12:46:10;2.00;99.90
38359;DHT22;42072;48.044;14.416;2024-01-30T12:48:37;2.00;99.90
38359;DHT22;42072;48.044;14.416;2024-01-30T12:51:21;2.10;99.90
38359;DHT22;42072;48.044;14.416;2024-01-30T12:54:06;2.00;99.90
38359;DHT22;42072;48.044;14.416;2024-01-30T12:56:33;2.10;99.90
38359;DHT22;42072;48.044;14.416;2024-01-30T12:59:00;2.00;94.70
38359;DHT22;42072;48.044;14.416;2024-01-30T13:01:44;2.10;99.90
38359;DHT22;42072;48.044;14.416;2024-01-30T13:04:12;2.10;98.40
38359;DHT22;42072;48.044;14.416;2024-01-30T13:06:40;2.30;99.90
38359;DHT22;42072;48.044;14.416;2024-01-30T13:09:09;2.40;99.90
38359;DHT22;42072;48.044;14.416;2024-01-30T13:11:36;2.40;85.80
38359;DHT22;42072;48.044;14.416;2024-01-30T13:14:03;2.40;53.40
38359;DHT22;42072;48.044;14.416;2024-01-30T13:16:30;2.40;61.90
38359;DHT22;42072;48.044;14.416;2024-01-30T13:18:57;2.30;58.60
38359;DHT22;42072;48.044;14.416;2024-01-30T13:21:25;1.90;85.60
38359;DHT22;42072;48.044;14.416;2024-01-30T13:23:52;2.00;99.90
38359;DHT22;42072;48.044;14.416;2024-01-30T13:26:21;1.90;99.90
38359;DHT22;42072;48.044;14.416;2024-01-30T13:28:48;1.90;99.90
38359;DHT22;42072;48.044;14.416;2024-01-30T13:31:15;1.70;99.90
38359;DHT22;42072;48.044;14.416;2024-01-30T13:33:43;1.70;99.90
38359;DHT22;42072;48.044;14.416;2024-01-30T13:36:11;1.60;99.90
38359;DHT22;42072;48.044;14.416;2024-01-30T13:38:38;1.50;99.90
38359;DHT22;42072;48.044;14.416;2024-01-30T13:41:06;1.70;99.90
38359;DHT22;42072;48.044;14.416;2024-01-30T13:43:33;1.80;99.90
38359;DHT22;42072;48.044;14.416;2024-01-30T13:46:00;2.00;99.90
38359;DHT22;42072;48.044;14.416;2024-01-30T13:48:44;1.90;99.90
38359;DHT22;42072;48.044;14.416;2024-01-30T13:51:11;1.90;99.90
38359;DHT22;42072;48.044;14.416;2024-01-30T13:53:57;1.80;99.90
38359;DHT22;42072;48.044;14.416;2024-01-30T13:56:24;1.80;99.90
38359;DHT22;42072;48.044;14.416;2024-01-30T13:58:52;1.90;99.90
38359;DHT22;42072;48.044;14.416;2024-01-30T14:01:19;1.70;99.90
38359;DHT22;42072;48.044;14.416;2024-01-30T14:03:47;1.60;99.90
38359;DHT22;42072;48.044;14.416;2024-01-30T14:06:14;1.70;99.90
38359;DHT22;42072;48.044;14.416;2024-01-30T14:08:42;1.70;99.90
38359;DHT22;42072;48.044;14.416;2024-01-30T14:11:16;1.60;99.90
38359;DHT22;42072;48.044;14.416;2024-01-30T14:13:43;1.50;99.90
38359;DHT22;42072;48.044;14.416;2024-01-30T14:16:10;1.50;99.90
38359;DHT22;42072;48.044;14.416;2024-01-30T14:18:38;1.40;99.90
38359;DHT22;42072;48.044;14.416;2024-01-30T14:21:05;1.40;99.90
38359;DHT22;42072;48.044;14.416;2024-01-30T14:23:33;1.40;99.90
38359;DHT22;42072;48.044;14.416;2024-01-30T14:26:01;1.30;99.90
38359;DHT22;42072;48.044;14.416;2024-01-30T14:28:28;1.20;99.90
38359;DHT22;42072;48.044;14.416;2024-01-30T14:30:56;1.30;99.90
38359;DHT22;42072;48.044;14.416;2024-01-30T14:33:23;1.20;99.90
38359;DHT22;42072;48.044;14.416;2024-01-30T14:36:07;1.20;99.90
38359;DHT22;42072;48.044;14.416;2024-01-30T14:38:53;1.20;99.90
38359;DHT22;42072;48.044;14.416;2024-01-30T14:41:20;1.20;99.90
38359;DHT22;42072;48.044;14.416;2024-01-30T14:44:05;1.30;99.90
38359;DHT22;42072;48.044;14.416;2024-01-30T14:46:33;1.20;99.90
38359;DHT22;42072;48.044;14.416;2024-01-30T14:49:01;1.20;99.90
38359;DHT22;42072;48.044;14.416;2024-01-30T14:51:30;1.10;99.90
38359;DHT22;42072;48.044;14.416;2024-01-30T14:54:14;1.10;99.90
38359;DHT22;42072;48.044;14.416;2024-01-30T14:56:42;1.10;99.90
38359;DHT22;42072;48.044;14.416;2024-01-30T14:59:09;0.90;99.90
38359;DHT22;42072;48.044;14.416;2024-01-30T15:01:36;0.90;99.90
38359;DHT22;42072;48.044;14.416;2024-01-30T15:09:33;0.70;1.00
38359;DHT22;42072;48.044;14.416;2024-01-30T15:12:01;0.60;1.00
38359;DHT22;42072;48.044;14.416;2024-01-30T15:14:28;0.60;1.00
38359;DHT22;42072;48.044;14.416;2024-01-30T15:17:12;0.50;1.00
38359;DHT22;42072;48.044;14.416;2024-01-30T15:19:57;0.50;1.00
38359;DHT22;42072;48.044;14.416;2024-01-30T15:22:25;0.40;1.00
38359;DHT22;42072;48.044;14.416;2024-01-30T15:24:53;0.40;1.00
38359;DHT22;42072;48.044;14.416;2024-01-30T15:27:20;0.40;1.00
38359;DHT22;42072;48.044;14.416;2024-01-30T15:29:48;0.40;1.00
38359;DHT22;42072;48.044;14.416;2024-01-30T15:32:15;0.50;1.00
38359;DHT22;42072;48.044;14.416;2024-01-30T15:34:42;0.50;1.00
38359;DHT22;42072;48.044;14.416;2024-01-30T15:37:10;0.30;1.00
38359;DHT22;42072;48.044;14.416;2024-01-30T15:39:37;0.30;1.00
38359;DHT22;42072;48.044;14.416;2024-01-30T15:42:04;0.30;1.00
38359;DHT22;42072;48.044;14.416;2024-01-30T15:44:32;0.30;1.00
38359;DHT22;42072;48.044;14.416;2024-01-30T15:47:16;0.20;1.00
38359;DHT22;42072;48.044;14.416;2024-01-30T15:49:43;0.20;13.00
38359;DHT22;42072;48.044;14.416;2024-01-30T15:52:10;0.30;28.30